createdAt,value
2019-03-18T00:00:29.927Z,72.04
2019-03-18T00:05:34.266Z,71.85
2019-03-18T00:10:38.594Z,72.40
2019-03-18T00:15:42.955Z,70.77
2019-03-18T00:20:48.188Z,70.90
2019-03-18T00:25:52.556Z,71.32
2019-03-18T00:30:56.936Z,72.03
2019-03-18T00:36:01.285Z,78.16
2019-03-18T00:41:05.658Z,77.08
2019-03-18T00:46:10.117Z,75.58
2019-03-18T00:51:14.461Z,76.27
2019-03-18T00:56:18.805Z,72.42
2019-03-18T01:01:23.135Z,70.36
2019-03-18T01:06:27.480Z,68.51
2019-03-18T01:11:31.817Z,67.91
2019-03-18T01:16:36.163Z,67.15
2019-03-18T01:21:40.524Z,67.33
2019-03-18T01:26:45.010Z,67.88
2019-03-18T01:31:49.379Z,67.95
2019-03-18T01:36:53.768Z,67.46
2019-03-18T01:41:58.114Z,67.01
2019-03-18T01:47:02.479Z,67.84
2019-03-18T01:52:06.864Z,67.58
2019-03-18T01:57:11.215Z,69.40
2019-03-18T02:02:15.581Z,69.29
2019-03-18T02:07:19.937Z,69.89
2019-03-18T02:12:25.272Z,70.87
2019-03-18T02:17:29.643Z,69.12
2019-03-18T02:22:34.074Z,70.10
2019-03-18T02:27:38.489Z,68.42
2019-03-18T02:32:43.914Z,68.42
2019-03-18T02:37:48.255Z,66.93
2019-03-18T02:42:52.625Z,66.40
2019-03-18T02:47:56.938Z,66.89
2019-03-18T02:53:01.280Z,66.55
2019-03-18T02:58:05.658Z,67.41
2019-03-18T03:03:09.991Z,66.38
2019-03-18T03:08:14.331Z,66.77
2019-03-18T03:13:18.698Z,66.31
2019-03-18T03:18:23.036Z,66.90
2019-03-18T03:23:27.498Z,65.49
2019-03-18T03:28:31.863Z,65.72
2019-03-18T03:33:36.280Z,65.44
2019-03-18T03:38:40.650Z,65.82
2019-03-18T03:43:45.046Z,64.81
2019-03-18T03:48:49.388Z,64.90
2019-03-18T03:53:53.739Z,64.05
2019-03-18T03:58:58.238Z,63.59
2019-03-18T04:04:02.612Z,63.04
2019-03-18T04:09:07.450Z,63.72
2019-03-18T04:14:11.794Z,63.16
2019-03-18T04:19:16.251Z,63.54
2019-03-18T04:24:20.606Z,63.18
2019-03-18T04:29:24.947Z,64.27
2019-03-18T04:34:29.343Z,64.31
2019-03-18T04:39:33.819Z,64.56
2019-03-18T04:44:40.836Z,65.40
2019-03-18T04:49:45.202Z,64.74
2019-03-18T04:54:49.577Z,64.02
2019-03-18T04:59:53.928Z,63.58
2019-03-18T05:04:58.296Z,63.47
2019-03-18T05:10:02.751Z,63.62
2019-03-18T05:15:10.998Z,63.44
2019-03-18T05:20:15.301Z,65.25
2019-03-18T05:25:19.671Z,64.90
2019-03-18T05:30:24.115Z,63.80
2019-03-18T05:35:28.494Z,65.41
2019-03-18T05:40:32.820Z,64.91
2019-03-18T05:45:38.533Z,66.82
2019-03-18T05:50:42.979Z,62.76
2019-03-18T05:55:47.331Z,61.63
2019-03-18T06:00:51.682Z,61.98
2019-03-18T06:05:56.458Z,63.05
2019-03-18T06:11:01.649Z,62.21
2019-03-18T06:16:06.006Z,63.08
2019-03-18T06:21:11.487Z,62.51
2019-03-18T06:26:15.813Z,63.28
2019-03-18T06:31:20.229Z,62.12
2019-03-18T06:36:24.663Z,60.95
2019-03-18T06:41:29.028Z,60.93
2019-03-18T06:46:33.362Z,61.05
2019-03-18T06:51:37.726Z,60.99
2019-03-18T06:56:42.052Z,61.29
2019-03-18T07:01:46.404Z,60.53
2019-03-18T07:06:50.787Z,60.42
2019-03-18T07:11:55.205Z,60.44
2019-03-18T07:16:59.676Z,60.47
2019-03-18T07:22:04.057Z,59.44
2019-03-18T07:27:08.409Z,60.66
2019-03-18T07:32:12.752Z,60.70
2019-03-18T07:37:17.097Z,59.54
2019-03-18T07:42:21.584Z,59.29
2019-03-18T07:47:25.956Z,59.98
2019-03-18T07:52:30.318Z,59.76
2019-03-18T07:57:34.705Z,60.09
2019-03-18T08:02:39.038Z,58.17
2019-03-18T08:07:43.451Z,57.73
2019-03-18T08:12:47.808Z,56.97
2019-03-18T08:17:52.175Z,56.06
2019-03-18T08:22:56.638Z,55.89
2019-03-18T08:28:01.082Z,56.25
2019-03-18T08:33:05.527Z,55.39
2019-03-18T08:38:09.863Z,54.18
2019-03-18T08:43:14.218Z,53.70
2019-03-18T08:48:18.568Z,53.57
2019-03-18T08:53:22.930Z,53.25
2019-03-18T08:58:27.412Z,51.51
2019-03-18T09:03:31.777Z,50.66
2019-03-18T09:08:36.165Z,49.81
2019-03-18T09:13:40.495Z,50.32
2019-03-18T09:18:44.869Z,50.32
2019-03-18T09:23:49.263Z,50.17
2019-03-18T09:28:53.608Z,49.31
2019-03-18T09:33:58.183Z,50.88
2019-03-18T09:39:03.091Z,49.95
2019-03-18T09:44:07.421Z,50.88
2019-03-18T09:49:21.124Z,52.60
2019-03-18T09:54:17.843Z,51.94
2019-03-18T09:59:23.270Z,53.10
2019-03-18T10:04:27.737Z,53.51
2019-03-18T10:09:32.084Z,53.21
2019-03-18T10:14:36.520Z,53.71
2019-03-18T10:19:40.899Z,52.79
2019-03-18T10:24:45.502Z,53.51
2019-03-18T10:29:49.870Z,52.98
2019-03-18T10:34:54.237Z,52.98
2019-03-18T10:39:58.616Z,52.45
2019-03-18T10:45:02.971Z,52.72
2019-03-18T10:50:13.487Z,51.06
2019-03-18T10:55:17.824Z,51.89
2019-03-18T11:00:22.353Z,52.06
2019-03-18T11:05:26.776Z,52.29
2019-03-18T11:10:31.154Z,52.38
2019-03-18T11:15:35.495Z,51.79
2019-03-18T11:20:39.863Z,51.65
2019-03-18T11:25:44.206Z,52.33
2019-03-18T11:30:48.648Z,52.18
2019-03-18T11:35:55.598Z,51.62
2019-03-18T11:40:59.103Z,51.79
2019-03-18T11:46:03.499Z,51.35
2019-03-18T11:51:07.847Z,50.99
2019-03-18T11:56:12.186Z,52.47
2019-03-18T12:01:16.576Z,52.58
2019-03-18T12:06:21.005Z,53.34
2019-03-18T12:11:25.372Z,52.03
2019-03-18T12:16:29.819Z,51.46
2019-03-18T12:21:34.176Z,51.98
2019-03-18T12:26:38.543Z,51.78
2019-03-18T12:31:42.934Z,51.47
2019-03-18T12:36:47.323Z,51.71
2019-03-18T12:41:51.702Z,54.91
2019-03-18T12:46:56.032Z,54.31
2019-03-18T12:52:00.394Z,54.89
2019-03-18T12:57:05.097Z,54.10
2019-03-18T13:02:09.510Z,52.88
2019-03-18T13:07:13.854Z,52.96
2019-03-18T13:12:19.267Z,53.04
2019-03-18T13:17:23.632Z,53.33
2019-03-18T13:22:27.979Z,51.67
2019-03-18T13:27:32.311Z,50.63
2019-03-18T13:32:36.706Z,53.22
2019-03-18T13:37:41.432Z,63.16
2019-03-18T13:42:45.947Z,69.19
2019-03-18T13:47:50.508Z,71.06
2019-03-18T13:52:54.966Z,72.29
2019-03-18T13:57:59.320Z,71.35
2019-03-18T14:03:03.713Z,68.64
2019-03-18T14:08:08.117Z,69.25
2019-03-18T14:13:12.466Z,67.70
2019-03-18T14:18:16.829Z,68.93
2019-03-18T14:23:22.279Z,64.53
2019-03-18T14:28:26.648Z,65.29
2019-03-18T14:33:31.003Z,63.58
2019-03-18T14:38:38.252Z,63.65
2019-03-18T14:43:41.430Z,61.71
2019-03-18T14:48:45.867Z,59.38
2019-03-18T14:53:50.386Z,60.87
2019-03-18T14:58:54.714Z,64.20
2019-03-18T15:03:59.155Z,65.46
2019-03-18T15:09:04.032Z,63.36
2019-03-18T15:14:08.486Z,61.81
2019-03-18T15:19:12.908Z,60.38
2019-03-18T15:24:17.536Z,59.93
2019-03-18T15:29:21.923Z,60.04
2019-03-18T15:34:26.297Z,58.93
2019-03-18T15:39:30.938Z,60.12
2019-03-18T15:44:35.376Z,60.03
2019-03-18T15:49:39.760Z,60.03
2019-03-18T15:54:53.453Z,62.20
2019-03-18T15:59:50.173Z,62.48
2019-03-18T16:04:54.550Z,62.99
2019-03-18T16:09:59.002Z,63.87
2019-03-18T16:15:03.731Z,64.38
2019-03-18T16:20:13.112Z,63.39
2019-03-18T16:25:17.461Z,63.90
2019-03-18T16:30:22.524Z,64.15
2019-03-18T16:35:26.895Z,64.82
2019-03-18T16:40:31.238Z,59.26
2019-03-18T16:45:35.602Z,59.27
2019-03-18T16:50:40.111Z,55.86
2019-03-18T16:55:44.502Z,55.68
2019-03-18T17:00:48.983Z,56.27
2019-03-18T17:05:54.611Z,56.74
2019-03-18T17:11:00.049Z,57.83
2019-03-18T17:16:04.501Z,57.70
2019-03-18T17:21:09.981Z,58.47
2019-03-18T17:26:14.493Z,59.52
2019-03-18T17:31:19.029Z,58.63
2019-03-18T17:36:23.528Z,58.28
2019-03-18T17:41:27.923Z,57.75
2019-03-18T17:46:32.317Z,59.17
2019-03-18T17:51:36.666Z,58.91
2019-03-18T17:56:41.039Z,58.86
2019-03-18T18:01:45.478Z,59.32
2019-03-18T18:06:50.961Z,59.74
2019-03-18T18:11:55.326Z,60.59
2019-03-18T18:16:59.809Z,61.31
2019-03-18T18:22:04.256Z,61.14
2019-03-18T18:27:08.682Z,61.71
2019-03-18T18:32:13.075Z,62.19
2019-03-18T18:37:17.385Z,62.92
2019-03-18T18:42:21.903Z,63.90
2019-03-18T18:47:26.443Z,63.90
2019-03-18T18:52:30.981Z,64.56
2019-03-18T18:57:35.561Z,64.32
2019-03-18T19:02:40.059Z,65.72
2019-03-18T19:07:44.699Z,65.15
2019-03-18T19:12:50.460Z,64.55
2019-03-18T19:17:57.444Z,64.86
2019-03-18T19:23:03.573Z,64.26
2019-03-18T19:28:08.191Z,64.78
2019-03-18T19:33:12.727Z,64.13
2019-03-18T19:38:17.140Z,64.42
2019-03-18T19:43:21.728Z,64.20
2019-03-18T19:48:26.410Z,63.09
2019-03-18T19:53:30.770Z,63.67
2019-03-18T19:58:35.147Z,63.50
2019-03-18T20:03:40.571Z,64.09
2019-03-18T20:08:44.976Z,64.49
2019-03-18T20:13:49.369Z,64.68
2019-03-18T20:18:53.787Z,65.63
2019-03-18T20:24:01.134Z,64.23
2019-03-18T20:29:05.435Z,64.93
2019-03-18T20:34:09.979Z,65.63
2019-03-18T20:39:14.355Z,66.24
2019-03-18T20:44:18.724Z,66.68
2019-03-18T20:49:23.123Z,67.16
2019-03-18T20:54:27.614Z,66.49
2019-03-18T20:59:31.979Z,67.99
2019-03-18T21:04:36.321Z,66.83
2019-03-18T21:09:40.669Z,65.09
2019-03-18T21:14:45.062Z,64.83
2019-03-18T21:19:49.409Z,65.12
2019-03-18T21:24:53.752Z,64.74
2019-03-18T21:29:58.087Z,64.46
2019-03-18T21:35:03.775Z,64.02
2019-03-18T21:40:10.940Z,63.89
2019-03-18T21:45:23.735Z,64.28
2019-03-18T21:50:28.329Z,64.42
2019-03-18T21:55:32.767Z,64.05
2019-03-18T22:00:37.138Z,62.90
2019-03-18T22:05:41.511Z,62.33
2019-03-18T22:10:46.084Z,62.05
2019-03-18T22:15:51.277Z,62.09
2019-03-18T22:20:55.700Z,62.34
2019-03-18T22:26:00.046Z,62.20
2019-03-18T22:31:04.406Z,62.20
2019-03-18T22:36:08.770Z,62.67
2019-03-18T22:41:13.136Z,64.18
2019-03-18T22:46:17.512Z,64.67
2019-03-18T22:51:22.011Z,64.88
2019-03-18T22:56:27.328Z,64.76
2019-03-18T23:01:33.361Z,63.99
2019-03-18T23:06:37.735Z,64.68
2019-03-18T23:11:43.792Z,65.66
2019-03-18T23:16:49.228Z,65.37
2019-03-18T23:21:53.621Z,65.68
2019-03-18T23:26:57.954Z,67.63
2019-03-18T23:32:02.442Z,67.18
2019-03-18T23:37:07.877Z,67.43
2019-03-18T23:42:12.252Z,67.30
2019-03-18T23:47:16.575Z,67.46
2019-03-18T23:52:20.950Z,67.87
2019-03-18T23:57:25.323Z,66.38
